Time;durP1;ratioP1;P1;durP2;ratioP2;P2;SDS_P1;SDS_P2;PMS_P1;PMS_P2;Temp;Humidity;BMP_temperature;BMP_pressure;BME280_temperature;BME280_humidity;BME280_pressure;Samples;Min_cycle;Max_cycle;Signal;HPM_P1;HPM_P2
2023/01/13 00:01:27;;;;;;;0.90;0.70;;;11.20;99.90;;;11.33;86.54;100169.50;5011737;28;20624;-64
2023/01/13 00:03:55;;;;;;;0.70;0.70;;;11.20;99.90;;;11.35;86.56;100172.00;5010990;28;20617;-65
2023/01/13 00:06:24;;;;;;;2.17;0.80;;;11.20;99.90;;;11.36;86.66;100160.59;5012036;28;21019;-65
2023/01/13 00:08:53;;;;;;;0.40;0.40;;;11.30;99.90;;;11.34;86.62;100157.28;5011032;28;20715;-65
2023/01/13 00:11:21;;;;;;;0.30;0.30;;;11.30;99.90;;;11.31;87.09;100155.75;5011989;28;20621;-65
2023/01/13 00:13:48;;;;;;;0.60;0.60;;;11.30;99.90;;;11.33;87.09;100153.03;5010577;28;21129;-65
2023/01/13 00:16:17;;;;;;;0.70;0.70;;;11.30;99.90;;;11.32;87.01;100149.59;5025264;28;20664;-65
2023/01/13 00:18:45;;;;;;;0.57;0.57;;;11.20;99.90;;;11.31;87.34;100142.69;5018597;28;20815;-65
2023/01/13 00:21:21;;;;;;;0.60;0.60;;;11.20;99.90;;;11.33;87.25;100155.66;5010724;28;20629;-65
2023/01/13 00:23:48;;;;;;;0.90;0.60;;;11.20;99.90;;;11.30;88.40;100146.28;5011260;28;20683;-65
2023/01/13 00:26:25;;;;;;;0.60;0.60;;;11.20;99.90;;;11.32;88.10;100146.13;5010084;28;21071;-65
2023/01/13 00:28:58;;;;;;;0.63;0.60;;;11.20;99.90;;;11.31;88.10;100139.25;5023062;28;20695;-65
2023/01/13 00:31:27;;;;;;;0.60;0.60;;;11.20;99.90;;;11.29;89.05;100146.38;5013969;28;21050;-65
2023/01/13 00:33:59;;;;;;;0.50;0.50;;;11.20;99.90;;;11.30;89.03;100145.44;5023593;28;21008;-65
2023/01/13 00:36:26;;;;;;;0.60;0.60;;;11.20;99.90;;;11.30;89.21;100148.03;5032748;28;21227;-64
2023/01/13 00:38:53;;;;;;;0.40;0.40;;;11.20;99.90;;;11.28;88.85;100142.97;5024179;28;20660;-65
2023/01/13 00:41:22;;;;;;;0.80;0.50;;;11.20;99.90;;;11.28;88.67;100121.22;5019192;28;20691;-65
2023/01/13 00:43:49;;;;;;;0.50;0.43;;;11.20;99.90;;;11.28;88.29;100126.47;5036070;28;20631;-65
2023/01/13 00:46:20;;;;;;;0.70;0.70;;;11.20;99.90;;;11.29;88.96;100118.47;5036818;28;20619;-65
2023/01/13 00:48:47;;;;;;;1.10;0.50;;;11.20;99.90;;;11.29;88.67;100117.66;5018768;28;20645;-65
2023/01/13 00:51:18;;;;;;;2.70;0.60;;;11.20;99.90;;;11.31;88.21;100120.97;5018740;28;21196;-65
2023/01/13 00:53:48;;;;;;;0.60;0.60;;;11.20;99.90;;;11.34;88.60;100111.09;5001337;28;20629;-65
2023/01/13 00:56:22;;;;;;;1.50;0.70;;;11.20;99.90;;;11.34;87.55;100111.09;5001148;28;21179;-65
2023/01/13 00:59:12;;;;;;;1.87;0.70;;;11.30;99.90;;;11.31;87.81;100113.97;5025248;28;20645;-65
2023/01/13 01:01:39;;;;;;;0.60;0.60;;;11.20;99.90;;;11.37;88.06;100092.56;5016635;28;21039;-63
2023/01/13 01:04:06;;;;;;;1.13;0.70;;;11.30;99.90;;;11.37;86.87;100102.19;5025504;28;20633;-65
2023/01/13 01:06:33;;;;;;;2.00;0.60;;;11.30;99.90;;;11.35;87.93;100091.03;5033999;28;20631;-63
2023/01/13 01:09:01;;;;;;;0.50;0.50;;;11.30;99.90;;;11.38;87.99;100096.00;5018314;28;21240;-65
2023/01/13 01:11:30;;;;;;;0.90;0.60;;;11.30;99.90;;;11.38;88.03;100081.16;5032219;28;20994;-65
2023/01/13 01:14:01;;;;;;;0.47;0.47;;;11.30;99.90;;;11.37;88.83;100084.72;5034243;28;20690;-65
2023/01/13 01:16:30;;;;;;;0.60;0.60;;;11.30;99.90;;;11.35;88.95;100081.41;5036601;28;20628;-65
2023/01/13 01:18:58;;;;;;;0.70;0.70;;;11.30;99.90;;;11.30;89.02;100086.22;5023494;28;21251;-65
2023/01/13 01:21:27;;;;;;;0.60;0.60;;;11.20;99.90;;;11.27;89.54;100107.34;5012201;28;20633;-64
2023/01/13 01:23:54;;;;;;;0.70;0.70;;;11.10;99.90;;;11.22;89.91;100096.44;5004109;28;20629;-65
2023/01/13 01:26:24;;;;;;;1.37;0.80;;;11.10;99.90;;;11.22;91.04;100103.47;5012374;28;20678;-65
2023/01/13 01:28:51;;;;;;;0.50;0.50;;;11.10;99.90;;;11.20;90.87;100097.53;5020713;28;21021;-65
2023/01/13 01:31:23;;;;;;;2.00;0.60;;;11.10;99.90;;;11.17;90.83;100088.16;5026437;28;20620;-62
2023/01/13 01:33:54;;;;;;;0.40;0.40;;;11.10;99.90;;;11.15;90.58;100071.81;5016833;28;21443;-64
2023/01/13 01:36:25;;;;;;;0.30;0.30;;;11.10;99.90;;;11.12;91.14;100089.50;5016228;28;20813;-65
2023/01/13 01:38:52;;;;;;;0.90;0.50;;;11.10;99.90;;;11.12;91.27;100090.31;5025181;28;21005;-65
2023/01/13 01:41:23;;;;;;;0.50;0.50;;;11.00;99.90;;;11.13;91.96;100085.94;5031441;28;20621;-64
2023/01/13 01:44:01;;;;;;;0.50;0.43;;;11.00;99.90;;;11.11;92.53;100083.47;5023227;28;20632;-64
2023/01/13 01:46:35;;;;;;;1.83;0.57;;;11.00;99.90;;;11.07;93.08;100070.78;5016971;28;21409;-64
2023/01/13 01:49:11;;;;;;;2.70;0.77;;;11.00;99.90;;;11.03;93.33;100079.81;5013390;28;20664;-65
2023/01/13 01:51:59;;;;;;;1.00;0.57;;;10.90;99.90;;;10.99;93.61;100063.56;5032651;28;20628;-62
2023/01/13 01:54:51;;;;;;;0.40;0.40;;;10.90;99.90;;;10.93;93.97;100051.88;5015813;28;20625;-65
2023/01/13 01:57:25;;;;;;;0.90;0.80;;;10.90;99.90;;;10.94;94.39;100050.09;5012589;28;20665;-64
2023/01/13 01:59:52;;;;;;;0.50;0.50;;;10.90;99.90;;;10.91;94.17;100056.38;4997405;28;21228;-65
2023/01/13 02:02:19;;;;;;;2.30;0.60;;;10.90;99.90;;;10.92;95.60;100062.44;5012416;28;20637;-65
2023/01/13 02:04:50;;;;;;;0.40;0.40;;;10.80;99.90;;;10.94;94.26;100065.75;4995898;28;20617;-65
2023/01/13 02:07:22;;;;;;;0.50;0.50;;;10.80;99.90;;;10.94;94.59;100077.00;4997191;28;20637;-65
2023/01/13 02:09:50;;;;;;;0.60;0.50;;;10.80;99.90;;;10.92;94.60;100073.69;4996922;28;20652;-65
2023/01/13 02:12:30;;;;;;;0.40;0.40;;;10.80;99.90;;;10.91;94.33;100064.22;5011773;28;20640;-65
2023/01/13 02:15:34;;;;;;;0.40;0.40;;;10.90;99.90;;;10.97;93.12;100059.47;5014013;28;20633;-65
2023/01/13 02:18:19;;;;;;;0.43;0.43;;;10.90;99.90;;;10.98;92.94;100050.66;4995468;28;20661;-64
2023/01/13 02:21:09;;;;;;;0.37;0.37;;;11.00;99.90;;;11.00;92.06;100054.81;5008720;28;21000;-64
2023/01/13 02:27:53;;;;;;;0.40;0.40;;;10.90;99.90;;;11.10;90.99;100044.41;5011952;28;20617;-65
2023/01/13 02:33:41;;;;;;;1.33;0.53;;;11.00;99.90;;;11.16;90.47;100049.16;4998015;28;20617;-65
2023/01/13 02:36:30;;;;;;;0.50;0.50;;;11.00;99.90;;;11.16;90.17;100038.69;4995699;28;20625;-65
2023/01/13 02:39:26;;;;;;;0.67;0.50;;;11.00;99.90;;;11.20;90.32;100040.09;4990268;28;20657;-64
2023/01/13 02:45:09;;;;;;;1.97;0.60;;;11.10;99.90;;;11.14;91.31;100017.13;5003727;28;21001;-65
2023/01/13 02:47:39;;;;;;;0.40;0.40;;;11.00;99.90;;;11.15;90.42;100023.97;5022324;28;20629;-65
2023/01/13 02:50:20;;;;;;;0.40;0.40;;;11.00;99.90;;;11.16;91.12;100020.44;4996368;28;20707;-65
2023/01/13 02:53:11;;;;;;;1.10;0.60;;;11.00;99.90;;;11.16;90.65;100009.97;5014033;28;21259;-65
2023/01/13 02:55:48;;;;;;;1.23;0.70;;;11.10;99.90;;;11.15;90.50;100000.47;5016086;28;20659;-65
2023/01/13 02:58:21;;;;;;;0.47;0.47;;;11.10;99.90;;;11.13;90.15;100000.63;4990431;28;20658;-64
2023/01/13 03:00:48;;;;;;;1.33;0.40;;;11.00;99.90;;;11.10;90.99;99995.63;5008768;28;20658;-65
2023/01/13 03:03:15;;;;;;;0.90;0.60;;;11.00;99.90;;;11.12;89.58;100008.56;5029787;28;21091;-65
2023/01/13 03:05:45;;;;;;;0.77;0.60;;;11.00;99.90;;;11.12;90.58;100006.78;5020629;28;21207;-65
2023/01/13 03:08:46;;;;;;;0.40;0.40;;;11.00;99.90;;;11.15;90.35;99993.47;5003613;28;20687;-65
2023/01/13 03:11:16;;;;;;;0.50;0.50;;;11.00;99.90;;;11.15;89.77;99990.03;4995702;28;20629;-66
2023/01/13 03:13:51;;;;;;;0.50;0.50;;;11.10;99.90;;;11.12;89.59;99993.72;4995093;28;21073;-66
2023/01/13 03:16:27;;;;;;;0.93;0.60;;;11.00;99.90;;;11.14;90.09;100004.06;5012995;28;20616;-65
2023/01/13 03:19:20;;;;;;;0.70;0.60;;;11.00;99.90;;;11.16;90.11;99991.69;5024839;28;21098;-65
2023/01/13 03:22:21;;;;;;;0.40;0.40;;;11.00;99.90;;;11.16;90.84;99992.50;5011974;28;20633;-66
2023/01/13 03:24:59;;;;;;;0.30;0.30;;;11.10;99.90;;;11.17;90.00;99993.34;4994225;28;20641;-66
2023/01/13 03:27:40;;;;;;;0.50;0.50;;;11.10;99.90;;;11.20;89.50;99982.66;4994597;28;20632;-66
2023/01/13 03:30:16;;;;;;;0.47;0.47;;;11.10;99.90;;;11.20;90.56;99978.22;5018143;28;20656;-66
2023/01/13 03:32:51;;;;;;;0.50;0.40;;;11.10;99.90;;;11.23;90.18;99984.97;5014290;28;20659;-66
2023/01/13 03:35:29;;;;;;;0.40;0.40;;;11.10;99.90;;;11.23;89.46;99987.59;4993177;28;20652;-65
2023/01/13 03:38:12;;;;;;;0.50;0.50;;;11.10;99.90;;;11.29;89.94;99997.53;4997032;28;20664;-65
2023/01/13 03:40:51;;;;;;;0.67;0.67;;;11.20;99.90;;;11.30;90.07;99986.13;5001720;28;20702;-68
2023/01/13 03:44:30;;;;;;;0.40;0.40;;;11.20;99.90;;;11.34;89.55;99971.84;5023937;28;20682;-65
2023/01/13 03:46:34;;;;;;;0.40;0.40;;;11.20;99.90;;;11.40;88.42;99971.31;5021513;28;20625;-65
2023/01/13 03:49:06;;;;;;;0.50;0.50;;;11.30;99.90;;;11.42;88.33;99977.25;5010978;28;21275;-66
2023/01/13 03:51:37;;;;;;;0.40;0.40;;;11.30;99.90;;;11.45;88.43;99977.00;5012449;28;20630;-65
2023/01/13 03:54:09;;;;;;;0.40;0.40;;;11.30;99.90;;;11.49;88.48;99975.75;4994096;28;20637;-65
2023/01/13 03:56:46;;;;;;;0.40;0.40;;;11.40;99.90;;;11.50;88.43;99975.63;4994149;28;20609;-65
2023/01/13 03:59:18;;;;;;;0.40;0.40;;;11.40;99.90;;;11.50;88.13;99964.34;4992150;28;21019;-65
2023/01/13 04:01:59;;;;;;;0.30;0.30;;;11.40;99.90;;;11.51;88.45;99964.22;4993846;28;20641;-68
2023/01/13 04:04:53;;;;;;;1.50;0.60;;;11.40;99.90;;;11.50;88.27;99957.34;5011036;28;20716;-68
2023/01/13 04:07:35;;;;;;;0.50;0.50;;;11.50;99.90;;;11.49;88.80;99966.16;4989217;28;21197;-66
2023/01/13 04:10:06;;;;;;;0.60;0.50;;;11.40;99.90;;;11.48;88.25;99961.03;5010692;28;20672;-68
2023/01/13 04:12:59;;;;;;;0.63;0.40;;;11.40;99.90;;;11.50;88.11;99962.56;5002199;28;20632;-66
2023/01/13 04:15:42;;;;;;;0.40;0.40;;;11.40;99.90;;;11.51;88.58;99960.78;4995414;28;20768;-66
2023/01/13 04:18:24;;;;;;;0.30;0.30;;;11.40;99.90;;;11.50;88.26;99964.34;5023487;28;20656;-66
2023/01/13 04:20:57;;;;;;;0.50;0.40;;;11.40;99.90;;;11.49;88.06;99963.53;5016758;28;20685;-65
2023/01/13 04:23:24;;;;;;;0.50;0.50;;;11.40;99.90;;;11.50;87.78;99954.72;5010497;28;20632;-65
2023/01/13 04:25:51;;;;;;;0.60;0.60;;;11.40;99.90;;;11.50;88.17;99954.72;4993485;28;20632;-66
2023/01/13 04:28:19;;;;;;;0.60;0.60;;;11.40;99.90;;;11.48;89.15;99953.19;5009841;28;21016;-68
2023/01/13 04:30:47;;;;;;;1.80;0.60;;;11.40;99.90;;;11.47;88.10;99955.00;5023074;28;20652;-66
2023/01/13 04:33:15;;;;;;;0.40;0.40;;;11.40;99.90;;;11.47;88.20;99959.41;5013599;28;20644;-65
2023/01/13 04:35:44;;;;;;;1.77;0.60;;;11.40;99.90;;;11.46;88.44;99960.34;5030023;28;20636;-65
2023/01/13 04:38:14;;;;;;;0.47;0.47;;;11.40;99.90;;;11.50;88.53;99959.13;5022200;28;20676;-65
2023/01/13 04:40:41;;;;;;;0.50;0.50;;;11.40;99.90;;;11.51;87.79;99955.56;5011206;28;20637;-66
2023/01/13 04:43:08;;;;;;;0.50;0.50;;;11.40;99.90;;;11.48;87.84;99953.19;5020562;28;20629;-64
2023/01/13 04:45:35;;;;;;;0.47;0.47;;;11.40;99.90;;;11.47;88.46;99955.00;5007991;28;20723;-66
2023/01/13 04:48:03;;;;;;;0.60;0.40;;;11.40;99.90;;;11.48;88.22;99945.34;5016064;28;20636;-66
2023/01/13 04:50:29;;;;;;;0.50;0.50;;;11.40;99.90;;;11.53;87.34;99953.63;5029044;28;20656;-66
2023/01/13 04:52:56;;;;;;;0.30;0.30;;;11.40;99.90;;;11.52;86.45;99944.97;5030203;28;21234;-68
2023/01/13 04:55:24;;;;;;;0.57;0.50;;;11.50;99.90;;;11.59;86.52;99948.72;5021568;28;21244;-67
2023/01/13 04:57:51;;;;;;;0.47;0.47;;;11.50;99.90;;;11.61;86.09;99943.34;5019379;28;20672;-69
2023/01/13 05:00:20;;;;;;;0.43;0.40;;;11.50;99.90;;;11.60;86.10;99933.88;5010070;28;20637;-66
2023/01/13 05:02:51;;;;;;;0.40;0.40;;;11.60;99.90;;;11.66;86.41;99938.56;5009815;28;20625;-66
2023/01/13 05:05:18;;;;;;;0.40;0.40;;;11.60;99.90;;;11.65;86.11;99936.88;5010642;28;20644;-65
2023/01/13 05:07:45;;;;;;;0.40;0.40;;;11.60;99.90;;;11.59;86.38;99940.88;5011677;28;20660;-68
2023/01/13 05:10:12;;;;;;;0.63;0.40;;;11.50;99.90;;;11.63;86.05;99938.81;5022438;28;20663;-65
2023/01/13 05:18:11;;;;;;;0.50;0.50;;;11.50;99.90;;;11.62;85.66;99916.28;5009055;28;20657;-65
2023/01/13 05:20:38;;;;;;;0.53;0.53;;;11.50;99.90;;;11.67;84.82;99921.94;4994173;28;20674;-65
2023/01/13 05:25:51;;;;;;;0.30;0.30;;;11.60;99.90;;;11.61;85.61;99925.06;5022996;28;20617;-65
2023/01/13 05:28:17;;;;;;;0.50;0.50;;;11.50;99.90;;;11.68;85.34;99913.16;4995521;28;21006;-66
2023/01/13 05:30:47;;;;;;;0.30;0.30;;;11.60;99.90;;;11.72;84.79;99914.53;5021859;28;20660;-66
2023/01/13 05:33:17;;;;;;;1.37;0.50;;;11.60;99.90;;;11.73;85.26;99913.59;5019048;28;20695;-65
2023/01/13 05:35:46;;;;;;;0.40;0.40;;;11.60;99.90;;;11.73;85.10;99916.19;5014095;28;20628;-66
2023/01/13 05:38:13;;;;;;;0.30;0.30;;;11.60;99.90;;;11.74;84.71;99920.44;5014098;28;20685;-65
2023/01/13 05:43:27;;;;;;;0.47;0.40;;;11.70;99.90;;;11.80;84.59;99930.34;5024075;28;21219;-67
2023/01/13 05:46:04;;;;;;;1.03;0.30;;;11.70;99.90;;;11.71;83.84;99925.97;5001163;28;21005;-70
2023/01/13 05:48:42;;;;;;;0.40;0.40;;;11.60;99.90;;;11.72;83.74;99922.38;4995329;28;20640;-68
2023/01/13 05:51:11;;;;;;;0.40;0.40;;;11.60;99.90;;;11.71;83.88;99935.56;5013125;28;20621;-65
2023/01/13 05:53:39;;;;;;;0.40;0.40;;;11.60;99.90;;;11.74;83.53;99935.28;5013134;28;20637;-66
2023/01/13 05:56:08;;;;;;;1.13;0.50;;;11.60;99.90;;;11.76;83.58;99942.03;5007129;28;20668;-65
2023/01/13 05:58:35;;;;;;;0.40;0.40;;;11.60;99.90;;;11.77;84.06;99938.47;5005841;28;20663;-66
2023/01/13 06:01:06;;;;;;;0.40;0.40;;;11.70;99.90;;;11.76;84.92;99949.03;5012857;28;20637;-68
2023/01/13 06:03:33;;;;;;;0.33;0.33;;;11.70;99.90;;;11.70;86.08;99929.50;5013316;28;20728;-67
2023/01/13 06:06:02;;;;;;;0.27;0.27;;;11.60;99.90;;;11.68;87.40;99941.88;5012245;28;20983;-68
2023/01/13 06:08:30;;;;;;;0.57;0.50;;;11.60;99.90;;;11.63;88.51;99949.25;5013881;28;20979;-65
2023/01/13 06:10:57;;;;;;;0.40;0.40;;;11.50;99.90;;;11.62;89.31;99958.06;4998176;28;20618;-65
2023/01/13 06:13:24;;;;;;;0.50;0.50;;;11.50;99.90;;;11.56;90.03;99966.44;4994716;28;20708;-66
2023/01/13 06:15:58;;;;;;;0.53;0.50;;;11.50;99.90;;;11.51;90.63;99966.00;5016340;28;20640;-64
2023/01/13 06:18:26;;;;;;;0.67;0.67;;;11.40;99.90;;;11.46;91.48;99968.19;5032642;28;21295;-66
2023/01/13 06:20:53;;;;;;;0.50;0.50;;;11.30;99.90;;;11.44;91.85;99977.94;5021161;28;20996;-65
2023/01/13 06:23:19;;;;;;;0.40;0.40;;;11.30;99.90;;;11.40;91.72;99980.00;5012450;28;21208;-66
2023/01/13 06:26:15;;;;;;;0.50;0.50;;;11.30;99.90;;;11.39;91.71;99990.59;5012511;28;20621;-69
2023/01/13 06:28:42;;;;;;;0.60;0.60;;;11.30;99.90;;;11.38;92.54;99994.97;5006920;28;20625;-64
2023/01/13 06:31:10;;;;;;;0.50;0.50;;;11.30;99.90;;;11.38;92.21;100015.88;5029998;28;20608;-67
2023/01/13 06:33:44;;;;;;;0.50;0.50;;;11.30;99.90;;;11.41;93.57;100046.13;5021229;28;20628;-66
2023/01/13 06:36:21;;;;;;;0.30;0.30;;;11.30;99.90;;;11.41;93.64;100067.03;4998986;28;20624;-66
2023/01/13 06:38:53;;;;;;;0.43;0.43;;;11.40;99.90;;;11.31;96.00;100059.13;4997219;28;21069;-65
2023/01/13 06:44:06;;;;;;;0.30;0.30;;;11.20;99.90;;;11.27;94.47;100067.34;5005971;28;21219;-67
2023/01/13 06:46:34;;;;;;;0.40;0.40;;;11.20;99.90;;;11.25;94.51;100057.03;5031902;28;20836;-68
2023/01/13 06:49:01;;;;;;;0.83;0.30;;;11.20;99.90;;;11.21;95.59;100055.63;5020265;28;20649;-68
2023/01/13 06:51:28;;;;;;;0.30;0.30;;;11.10;99.90;;;11.25;95.09;100059.63;5020136;28;20644;-67
2023/01/13 06:53:54;;;;;;;0.30;0.30;;;11.20;99.90;;;11.24;95.40;100058.00;5019562;28;20639;-65
2023/01/13 06:56:21;;;;;;;0.30;0.30;;;11.20;99.90;;;11.20;93.68;100048.72;5027226;28;20665;-66
2023/01/13 06:58:48;;;;;;;0.30;0.30;;;11.10;99.90;;;11.17;93.38;100048.16;5018412;28;21307;-65
2023/01/13 07:01:15;;;;;;;0.40;0.40;;;11.10;99.90;;;11.13;93.11;100050.22;5012511;28;20630;-68
2023/01/13 07:03:42;;;;;;;0.30;0.30;;;11.10;99.90;;;11.11;92.90;100053.91;5018307;28;20636;-66
2023/01/13 07:06:09;;;;;;;0.37;0.37;;;11.00;99.90;;;11.06;92.42;100064.72;5024138;28;20691;-67
2023/01/13 07:08:36;;;;;;;0.40;0.40;;;11.00;99.90;;;11.06;91.28;100063.91;5010904;28;20625;-65
2023/01/13 07:11:03;;;;;;;0.30;0.30;;;11.00;99.90;;;11.01;89.78;100060.84;5010583;28;20652;-65
2023/01/13 07:16:15;;;;;;;0.30;0.30;;;10.90;99.90;;;10.94;89.01;100066.56;5026460;28;20625;-65
2023/01/13 07:18:42;;;;;;;0.57;0.50;;;10.90;99.90;;;10.89;89.00;100063.50;5024147;28;20692;-66
2023/01/13 07:21:12;;;;;;;0.40;0.30;;;10.80;99.90;;;10.84;88.99;100070.88;5028318;28;20613;-66
2023/01/13 07:23:40;;;;;;;0.30;0.30;;;10.80;99.90;;;10.85;88.50;100067.34;4990441;28;20637;-66
2023/01/13 07:26:09;;;;;;;0.30;0.30;;;10.80;99.90;;;10.83;87.30;100068.41;4995828;28;20632;-65
2023/01/13 07:28:37;;;;;;;0.40;0.40;;;10.80;99.90;;;10.82;88.36;100070.19;5004741;28;20634;-68
2023/01/13 07:31:11;;;;;;;0.33;0.33;;;10.80;99.90;;;10.82;88.84;100071.94;4990093;28;20656;-68
2023/01/13 07:33:38;;;;;;;0.40;0.40;;;10.80;99.90;;;10.80;88.20;100082.53;5027251;28;20637;-69
2023/01/13 07:36:07;;;;;;;0.30;0.30;;;10.70;99.90;;;10.77;87.95;100088.00;5015683;28;20671;-65
2023/01/13 07:38:34;;;;;;;0.40;0.40;;;10.70;99.90;;;10.74;87.20;100085.63;5008898;28;20670;-64
2023/01/13 07:43:47;;;;;;;0.90;0.43;;;10.70;99.90;;;10.69;86.08;100076.53;5011644;28;20680;-65
2023/01/13 07:46:14;;;;;;;0.40;0.40;;;10.70;99.90;;;10.67;84.49;100089.69;5011262;28;20683;-64
2023/01/13 07:48:41;;;;;;;2.53;0.40;;;10.60;99.90;;;10.65;82.56;100077.72;5013273;28;20641;-65
2023/01/13 07:51:10;;;;;;;0.60;0.40;;;10.60;99.90;;;10.61;82.66;100079.75;5024876;28;20632;-65
2023/01/13 07:53:38;;;;;;;0.40;0.40;;;10.60;99.90;;;10.64;81.68;100053.44;5013813;28;21463;-65
2023/01/13 07:56:06;;;;;;;0.80;0.50;;;10.60;99.90;;;10.64;81.72;100036.94;5013486;28;20678;-66
2023/01/13 07:58:35;;;;;;;0.30;0.30;;;10.60;99.90;;;10.63;82.41;100062.19;5027323;28;21434;-68
2023/01/13 08:01:13;;;;;;;0.60;0.50;;;10.60;99.90;;;10.62;82.80;100084.03;4986883;28;20730;-66
2023/01/13 08:03:40;;;;;;;0.63;0.40;;;10.60;99.90;;;10.62;82.94;100117.94;4990833;28;20985;-65
2023/01/13 08:06:08;;;;;;;0.97;0.50;;;10.60;99.90;;;10.59;83.02;100144.25;4990848;28;21158;-66
2023/01/13 08:08:35;;;;;;;0.70;0.50;;;10.50;99.90;;;10.55;82.82;100152.44;5008690;28;21139;-66
2023/01/13 08:11:05;;;;;;;0.40;0.40;;;10.50;99.90;;;10.51;83.91;100146.66;5010827;28;20620;-66
2023/01/13 08:13:32;;;;;;;0.70;0.70;;;10.50;99.90;;;10.53;83.66;100149.13;5017671;28;20652;-71
2023/01/13 08:16:06;;;;;;;0.50;0.50;;;10.50;99.90;;;10.57;84.49;100148.78;5012546;28;20621;-65
2023/01/13 08:18:35;;;;;;;0.60;0.60;;;10.50;99.90;;;10.60;83.49;100156.38;5014995;28;20667;-66
2023/01/13 08:21:12;;;;;;;0.93;0.50;;;10.50;99.90;;;10.73;83.62;100151.81;5013680;28;20632;-66
2023/01/13 08:23:43;;;;;;;1.80;0.60;;;10.60;99.90;;;10.82;82.78;100145.84;5011771;28;20641;-65
2023/01/13 08:26:16;;;;;;;1.20;0.67;;;10.80;99.90;;;10.88;81.19;100150.59;5010335;28;20631;-65
2023/01/13 08:28:43;;;;;;;0.70;0.60;;;10.90;99.90;;;10.91;81.50;100165.16;5006352;28;20668;-66
2023/01/13 08:31:14;;;;;;;0.80;0.67;;;10.90;99.90;;;10.85;81.26;100178.72;5008441;28;20637;-70
2023/01/13 08:33:42;;;;;;;2.63;0.80;;;10.80;99.90;;;10.75;81.20;100175.19;5013135;28;20741;-65
2023/01/13 08:36:11;;;;;;;0.50;0.50;;;10.70;99.90;;;10.71;79.90;100176.41;5013559;28;20629;-67
2023/01/13 08:38:40;;;;;;;1.17;0.60;;;10.70;99.90;;;10.80;80.67;100178.25;5011623;28;20673;-65
2023/01/13 08:41:53;;;;;;;1.23;0.50;;;10.80;99.90;;;10.87;79.26;100188.09;4993471;28;21050;-66
2023/01/13 08:44:03;;;;;;;4.40;0.57;;;10.90;99.90;;;10.98;78.55;100189.00;5005045;28;21045;-65
2023/01/13 08:46:30;;;;;;;0.47;0.47;;;10.90;99.90;;;11.03;78.37;100194.69;5006116;28;20618;-65
2023/01/13 08:48:57;;;;;;;0.97;0.50;;;11.00;99.90;;;11.05;78.37;100191.00;5005838;28;20672;-65
2023/01/13 08:51:24;;;;;;;0.40;0.40;;;11.00;99.90;;;11.06;78.49;100200.47;5016092;28;20625;-65
2023/01/13 08:53:51;;;;;;;2.20;0.47;;;11.00;99.90;;;11.09;78.03;100199.41;5018428;28;21126;-65
2023/01/13 08:56:18;;;;;;;0.40;0.40;;;11.10;99.90;;;11.10;77.89;100201.91;5025327;28;20644;-68
2023/01/13 08:58:45;;;;;;;1.57;0.60;;;11.10;99.90;;;11.09;78.24;100204.63;5016114;28;20673;-65
2023/01/13 09:01:18;;;;;;;0.60;0.40;;;11.00;99.90;;;11.12;78.63;100186.09;4994489;28;20684;-66
2023/01/13 09:03:45;;;;;;;0.40;0.40;;;11.10;99.90;;;11.13;78.18;100182.53;5013903;28;20633;-65
2023/01/13 09:06:12;;;;;;;3.90;0.57;;;11.10;99.90;;;11.21;78.06;100185.34;5014958;28;20622;-66
2023/01/13 09:08:40;;;;;;;0.40;0.40;;;11.20;99.90;;;11.27;77.63;100192.69;5013548;28;20633;-65
2023/01/13 09:14:03;;;;;;;0.47;0.43;;;12.10;99.90;;;14.75;67.71;100199.84;5010403;28;20643;-66
2023/01/13 09:16:30;;;;;;;0.50;0.50;;;14.60;99.90;;;15.64;62.62;100214.69;5028437;28;20631;-67
2023/01/13 09:18:57;;;;;;;3.23;0.40;;;15.80;99.90;;;15.63;61.11;100213.00;5016190;28;20658;-64
2023/01/13 09:21:25;;;;;;;0.40;0.40;;;15.80;99.90;;;15.28;61.60;100213.03;5001627;28;20642;-70
2023/01/13 09:23:52;;;;;;;0.57;0.50;;;15.50;99.90;;;14.77;63.64;100213.66;4991811;28;20633;-64
2023/01/13 09:26:20;;;;;;;0.40;0.40;;;15.00;99.90;;;14.39;64.46;100213.84;5007789;28;20622;-67
2023/01/13 09:28:47;;;;;;;0.50;0.50;;;14.60;99.90;;;13.86;65.74;100224.03;4999544;28;20630;-68
2023/01/13 09:31:14;;;;;;;0.50;0.50;;;14.00;99.90;;;13.40;67.57;100235.25;5011723;28;20817;-64
2023/01/13 09:36:26;;;;;;;0.50;0.50;;;13.10;99.90;;;12.64;70.40;100235.91;5013950;28;20637;-66
2023/01/13 09:38:53;;;;;;;0.50;0.50;;;12.80;99.90;;;12.44;71.82;100229.78;5010924;28;20665;-65
2023/01/13 09:44:19;;;;;;;0.40;0.40;;;12.40;99.90;;;12.42;72.73;100236.94;5014783;28;20643;-64
2023/01/13 09:46:52;;;;;;;1.77;0.40;;;12.40;99.90;;;12.46;72.53;100248.78;5013741;28;20612;-64
2023/01/13 09:49:38;;;;;;;0.40;0.40;;;12.50;99.90;;;12.53;72.49;100266.56;5006090;28;20638;-67
2023/01/13 09:52:22;;;;;;;0.70;0.70;;;12.50;99.90;;;12.56;72.03;100269.78;4996926;28;20625;-67
2023/01/13 09:55:04;;;;;;;2.60;0.70;;;12.50;99.90;;;12.55;72.29;100282.97;4988866;28;20630;-64
2023/01/13 09:57:36;;;;;;;0.93;0.57;;;12.50;99.90;;;12.48;73.40;100293.13;5006778;28;20640;-64
2023/01/13 10:00:23;;;;;;;1.53;0.83;;;12.40;99.90;;;12.46;73.89;100281.97;4999902;28;20669;-65
2023/01/13 10:03:26;;;;;;;0.50;0.50;;;12.40;99.90;;;12.33;74.05;100278.72;4993027;28;21685;-65
2023/01/13 10:06:47;;;;;;;1.87;0.50;;;12.30;99.90;;;12.14;74.78;100281.22;4991981;28;20659;-67
2023/01/13 10:09:25;;;;;;;1.67;0.83;;;12.10;99.90;;;12.03;74.91;100276.09;4936340;28;20749;-68
2023/01/13 10:14:51;;;;;;;0.37;0.37;;;11.90;99.90;;;11.93;74.17;100272.56;5020471;28;20647;-65
2023/01/13 10:17:43;;;;;;;1.93;0.93;;;11.90;99.90;;;11.95;74.42;100266.25;4989570;28;20637;-65
2023/01/13 10:20:32;;;;;;;0.87;0.57;;;11.90;99.90;;;11.96;75.07;100254.84;4987793;28;20673;-66
2023/01/13 10:23:02;;;;;;;1.23;0.63;;;11.90;99.90;;;12.00;75.06;100256.25;4987885;28;20716;-66
2023/01/13 10:26:13;;;;;;;0.60;0.60;;;11.90;99.90;;;12.27;74.47;100250.47;5000309;28;20693;-68
2023/01/13 10:28:49;;;;;;;1.20;0.60;;;12.20;99.90;;;12.53;74.00;100263.94;4982352;28;20629;-66
2023/01/13 10:31:18;;;;;;;1.33;0.50;;;12.40;99.90;;;12.52;71.71;100252.69;5011017;28;21228;-67
2023/01/13 10:33:45;;;;;;;1.47;0.73;;;12.50;99.90;;;12.45;71.11;100247.13;5012889;28;21197;-66
2023/01/13 10:36:20;;;;;;;3.13;0.90;;;12.40;99.90;;;12.40;70.48;100246.69;4987629;28;20629;-67
2023/01/13 10:38:49;;;;;;;0.80;0.67;;;12.30;99.90;;;12.38;71.40;100274.78;5015251;28;20641;-66
2023/01/13 10:41:25;;;;;;;0.70;0.60;;;12.30;99.90;;;12.39;69.87;100257.31;4989160;28;20724;-67
2023/01/13 10:44:01;;;;;;;2.03;0.57;;;12.40;99.90;;;12.36;69.52;100281.94;4989450;28;20996;-69
2023/01/13 10:46:32;;;;;;;0.40;0.40;;;12.30;99.90;;;12.39;69.24;100278.22;5006395;28;20760;-65
2023/01/13 10:49:31;;;;;;;0.40;0.40;;;12.40;99.90;;;12.32;68.71;100288.38;4999298;28;21169;-68
2023/01/13 10:52:00;;;;;;;1.03;0.77;;;12.30;99.90;;;12.33;68.74;100284.78;5013858;28;20645;-69
2023/01/13 10:54:28;;;;;;;0.80;0.60;;;12.30;99.90;;;12.32;69.63;100287.53;4999678;28;20630;-67
2023/01/13 10:57:19;;;;;;;3.03;0.60;;;12.30;99.90;;;12.32;67.98;100293.63;5013058;28;20629;-67
2023/01/13 10:59:47;;;;;;;2.37;0.60;;;12.20;99.90;;;12.27;67.48;100285.31;5013311;28;20668;-67
2023/01/13 11:02:28;;;;;;;2.30;0.40;;;12.30;99.90;;;12.20;67.55;100284.16;5010755;28;20637;-66
2023/01/13 11:05:11;;;;;;;1.37;0.60;;;12.10;99.90;;;12.22;67.14;100286.69;5010118;28;20641;-67
2023/01/13 11:07:45;;;;;;;0.80;0.70;;;12.10;99.90;;;12.17;66.17;100278.38;4989497;28;21072;-66
2023/01/13 11:10:26;;;;;;;0.60;0.60;;;12.10;99.90;;;12.10;66.22;100278.06;4989652;28;20711;-66
2023/01/13 11:13:11;;;;;;;1.47;0.60;;;12.00;99.90;;;12.03;66.92;100292.59;5004402;28;20637;-67
2023/01/13 11:16:04;;;;;;;2.23;0.77;;;11.90;99.90;;;12.12;66.81;100293.59;5004234;28;20648;-69
2023/01/13 11:18:50;;;;;;;1.23;0.87;;;12.00;99.90;;;12.21;65.61;100296.28;4986882;28;20725;-68
2023/01/13 11:21:29;;;;;;;0.50;0.50;;;12.10;99.90;;;12.22;64.49;100294.53;4993245;28;20658;-67